Time;durP1;ratioP1;P1;durP2;ratioP2;P2;SDS_P1;SDS_P2;PMS_P1;PMS_P2;Temp;Humidity;BMP_temperature;BMP_pressure;BME280_temperature;BME280_humidity;BME280_pressure;Samples;Min_cycle;Max_cycle;Signal;HPM_P1;HPM_P2
2021/11/12 00:14:56;;;;;;;19.20;16.23;;;4.80;99.90;;;;;;6226846;23;20415;-85
2021/11/12 00:17:30;;;;;;;21.70;16.83;;;4.60;99.90;;;;;;6188135;23;20420;-88
2021/11/12 00:19:57;;;;;;;20.90;15.97;;;4.70;99.90;;;;;;6192993;23;20494;-86
2021/11/12 00:26:19;;;;;;;17.60;15.00;;;4.70;99.90;;;;;;6067188;23;20446;-86
2021/11/12 00:29:00;;;;;;;19.50;15.20;;;4.70;99.90;;;;;;6112733;23;20913;-84
2021/11/12 00:31:45;;;;;;;21.17;16.67;;;4.70;99.90;;;;;;6194821;23;20415;-85
2021/11/12 00:38:26;;;;;;;20.73;15.67;;;4.60;99.90;;;;;;6066009;23;20541;-85
2021/11/12 00:41:00;;;;;;;19.77;15.80;;;4.60;99.90;;;;;;6042314;23;20411;-84
2021/11/12 00:49:18;;;;;;;22.57;15.40;;;4.60;99.90;;;;;;6216607;23;20423;-85
2021/11/12 00:51:51;;;;;;;20.23;15.70;;;4.50;99.90;;;;;;6226523;23;20488;-88
2021/11/12 00:54:22;;;;;;;19.53;15.17;;;4.50;99.90;;;;;;6194224;23;20414;-85
2021/11/12 01:03:24;;;;;;;21.50;16.10;;;4.20;99.90;;;;;;6041085;23;20466;-87
2021/11/12 01:05:54;;;;;;;22.80;16.37;;;4.20;99.90;;;;;;6018065;23;20469;-86
2021/11/12 01:08:23;;;;;;;21.40;15.10;;;4.20;99.90;;;;;;6024598;23;20438;-86
2021/11/12 01:14:41;;;;;;;18.17;13.80;;;4.30;99.90;;;;;;6029671;23;20426;-85
2021/11/12 01:17:35;;;;;;;18.50;14.57;;;4.30;99.90;;;;;;6043538;23;20413;-84
2021/11/12 01:20:26;;;;;;;21.07;15.03;;;4.20;99.90;;;;;;6050494;23;20425;-86
2021/11/12 01:22:55;;;;;;;16.70;13.20;;;4.10;99.90;;;;;;6044139;23;20436;-86
2021/11/12 01:25:24;;;;;;;20.60;15.80;;;4.30;99.90;;;;;;6069284;23;20432;-84
2021/11/12 01:27:52;;;;;;;24.20;16.63;;;4.20;99.90;;;;;;6067937;23;20418;-87
2021/11/12 01:30:21;;;;;;;18.60;15.90;;;4.10;99.90;;;;;;6044327;23;20420;-83
2021/11/12 01:32:49;;;;;;;22.43;16.10;;;4.10;99.90;;;;;;6042711;23;20466;-83
2021/11/12 01:35:24;;;;;;;17.63;15.33;;;3.90;99.90;;;;;;6045510;23;20381;-84
2021/11/12 01:37:53;;;;;;;17.43;13.00;;;4.00;99.90;;;;;;6069386;23;20754;-84
2021/11/12 01:40:24;;;;;;;15.40;12.67;;;4.00;99.90;;;;;;6070176;23;20402;-85
2021/11/12 01:43:12;;;;;;;16.30;13.37;;;4.00;99.90;;;;;;6043326;23;20960;-84
2021/11/12 01:48:41;;;;;;;18.40;13.20;;;4.20;99.90;;;;;;6074137;23;20503;-85
2021/11/12 01:54:21;;;;;;;14.87;11.77;;;4.00;99.90;;;;;;6093532;23;20385;-86
2021/11/12 02:00:39;;;;;;;15.70;11.70;;;4.20;99.90;;;;;;6045390;23;20396;-86
2021/11/12 02:03:09;;;;;;;15.43;12.10;;;4.40;99.90;;;;;;6091477;23;20450;-88
2021/11/12 02:05:38;;;;;;;17.70;12.87;;;4.40;99.90;;;;;;6073261;23;20414;-86
2021/11/12 02:08:09;;;;;;;15.10;13.50;;;4.40;99.90;;;;;;6072667;23;20426;-86
2021/11/12 02:10:36;;;;;;;17.87;12.27;;;4.20;99.90;;;;;;6074448;23;20420;-86
2021/11/12 02:13:15;;;;;;;15.00;12.00;;;4.10;99.90;;;;;;6071311;23;21081;-85
2021/11/12 02:15:46;;;;;;;13.40;11.87;;;4.40;99.90;;;;;;6072374;23;20455;-85
2021/11/12 02:18:15;;;;;;;14.13;12.43;;;4.50;99.90;;;;;;6081068;23;20449;-84
2021/11/12 02:22:01;;;;;;;15.63;12.07;;;4.50;99.90;;;;;;6081652;23;20415;-85
2021/11/12 02:24:21;;;;;;;13.20;11.63;;;4.50;99.90;;;;;;6051609;23;20485;-85
2021/11/12 02:30:31;;;;;;;12.73;10.60;;;4.50;99.90;;;;;;6209334;23;20554;-87
2021/11/12 02:33:07;;;;;;;15.17;11.40;;;4.50;99.90;;;;;;6192023;23;20456;-86
2021/11/12 02:35:39;;;;;;;12.57;10.67;;;4.40;99.90;;;;;;6219355;23;20475;-87
2021/11/12 02:40:51;;;;;;;14.47;12.30;;;4.50;99.90;;;;;;6206205;23;21023;-84
2021/11/12 02:43:19;;;;;;;13.80;12.17;;;4.50;99.90;;;;;;6190291;23;20435;-82
2021/11/12 02:49:29;;;;;;;16.70;11.60;;;4.40;99.90;;;;;;6176333;23;20511;-85
2021/11/12 02:52:11;;;;;;;16.70;12.50;;;4.40;99.90;;;;;;6217673;23;20501;-84
2021/11/12 02:54:39;;;;;;;17.57;12.37;;;4.40;99.90;;;;;;6217320;23;20399;-84
2021/11/12 02:57:06;;;;;;;19.47;12.20;;;4.30;99.90;;;;;;6190194;23;20403;-85
2021/11/12 02:59:33;;;;;;;16.13;13.00;;;4.30;99.90;;;;;;6190333;23;20961;-84
2021/11/12 03:02:06;;;;;;;17.63;11.97;;;4.20;99.90;;;;;;6189748;23;20406;-83
2021/11/12 03:04:43;;;;;;;17.40;11.00;;;4.30;99.90;;;;;;6217975;23;20781;-84
2021/11/12 03:10:20;;;;;;;15.60;10.63;;;4.20;99.90;;;;;;6211732;23;20457;-83
2021/11/12 03:12:46;;;;;;;16.70;10.90;;;4.30;99.90;;;;;;6191494;23;20881;-88
2021/11/12 03:15:13;;;;;;;14.40;10.10;;;4.40;99.90;;;;;;6192719;23;20908;-83
2021/11/12 03:17:49;;;;;;;12.97;9.23;;;4.40;99.90;;;;;;6192088;23;20913;-84
2021/11/12 03:20:22;;;;;;;17.10;11.30;;;4.40;99.90;;;;;;6187872;23;20512;-86
2021/11/12 03:22:57;;;;;;;16.57;10.17;;;4.20;99.90;;;;;;6161369;23;20442;-87
2021/11/12 03:49:28;;;;;;;;;;;;;;;;;;;;;
2021/11/12 03:56:29;;;;;;;16.63;10.70;;;4.50;99.90;;;;;;6190850;23;20422;-85
2021/11/12 04:01:42;;;;;;;20.27;12.10;;;4.20;99.90;;;;;;6186941;23;20401;-83
2021/11/12 04:04:20;;;;;;;20.47;10.90;;;4.30;99.90;;;;;;6159374;23;21009;-83
2021/11/12 04:06:56;;;;;;;20.23;13.00;;;4.30;99.90;;;;;;6160569;23;20764;-84
2021/11/12 04:17:18;;;;;;;22.03;11.63;;;4.30;99.90;;;;;;6116641;23;20454;-87
2021/11/12 05:13:46;;;;;;;20.93;12.57;;;5.20;99.90;;;;;;6188011;23;20531;-85
2021/11/12 05:56:47;;;;;;;23.23;14.50;;;5.60;99.90;;;;;;6217585;23;20696;-86
2021/11/12 05:59:15;;;;;;;25.63;14.03;;;5.50;99.90;;;;;;6219571;23;20974;-85
2021/11/12 06:04:37;;;;;;;20.50;12.70;;;5.60;99.90;;;;;;6236151;23;20499;-85
2021/11/12 06:07:07;;;;;;;22.10;12.23;;;5.70;99.90;;;;;;6210296;23;20512;-88
2021/11/12 06:09:40;;;;;;;19.97;12.10;;;5.60;99.90;;;;;;6203474;23;20428;-87
2021/11/12 06:13:23;;;;;;;;;;;;;;;;;;;;;
2021/11/12 06:15:40;;;;;;;24.40;13.90;;;5.70;99.90;;;;;;6064925;23;20541;-87
2021/11/12 06:18:11;;;;;;;27.83;14.03;;;5.40;99.90;;;;;;6095607;23;20478;-86
2021/11/12 06:20:46;;;;;;;25.37;13.60;;;5.40;99.90;;;;;;6095963;23;20603;-86
2021/11/12 06:23:13;;;;;;;21.83;13.80;;;5.40;99.90;;;;;;6103819;23;20450;-85
2021/11/12 06:26:17;;;;;;;23.90;13.23;;;5.50;99.90;;;;;;6113645;23;20444;-86
2021/11/12 06:38:04;;;;;;;;;;;;;;;;;;;;;
2021/11/12 06:50:31;;;;;;;22.80;15.93;;;5.70;99.90;;;;;;6214693;23;20470;-87
2021/11/12 07:00:52;;;;;;;23.03;13.50;;;5.70;99.90;;;;;;6012546;23;20488;-86
2021/11/12 07:03:49;;;;;;;;;;;;;;;;;;;;;
2021/11/12 07:06:55;;;;;;;22.13;13.13;;;5.80;99.90;;;;;;6009045;23;20847;-84
2021/11/12 07:10:12;;;;;;;;;;;;;;;;;;;;;
2021/11/12 07:12:55;;;;;;;21.97;13.40;;;5.50;99.90;;;;;;5991140;23;20484;-86
2021/11/12 07:15:34;;;;;;;22.10;11.30;;;5.60;99.90;;;;;;5981151;24;20424;-85
2021/11/12 07:18:01;;;;;;;19.57;11.73;;;5.70;99.90;;;;;;5980158;23;20440;-85
2021/11/12 07:20:31;;;;;;;20.30;13.03;;;5.70;99.90;;;;;;5972736;23;20418;-85
2021/11/12 07:24:04;;;;;;;;;;;;;;;;;;;;;
2021/11/12 07:30:25;;;;;;;23.27;13.40;;;5.60;99.90;;;;;;6073205;23;20432;-87
2021/11/12 07:33:00;;;;;;;20.70;12.10;;;5.70;99.90;;;;;;6077021;23;20409;-84
2021/11/12 07:35:49;;;;;;;22.23;11.23;;;5.80;99.90;;;;;;6045866;23;20407;-82
2021/11/12 07:42:35;;;;;;;18.87;12.50;;;5.90;99.90;;;;;;6124217;23;20963;-83
2021/11/12 07:45:18;;;;;;;18.37;11.70;;;5.80;99.90;;;;;;6173830;23;20601;-83
2021/11/12 07:47:45;;;;;;;19.20;12.40;;;5.70;99.90;;;;;;6171510;23;20575;-86
2021/11/12 07:50:20;;;;;;;16.40;11.60;;;5.60;99.90;;;;;;6184838;23;20416;-86
2021/11/12 07:52:50;;;;;;;17.37;11.73;;;5.50;99.90;;;;;;6184586;23;20402;-86
2021/11/12 07:55:17;;;;;;;18.40;12.57;;;5.70;99.90;;;;;;6185337;23;20397;-87
2021/11/12 07:59:10;;;;;;;18.53;11.50;;;5.80;99.90;;;;;;6206903;23;20511;-85
2021/11/12 08:05:47;;;;;;;16.30;10.93;;;5.80;99.90;;;;;;6101770;23;20420;-84
2021/11/12 08:08:19;;;;;;;17.47;10.97;;;5.90;99.90;;;;;;6097315;23;20633;-84
2021/11/12 08:14:24;;;;;;;17.00;10.77;;;5.60;99.90;;;;;;6119422;23;20416;-86
2021/11/12 08:20:33;;;;;;;14.73;10.50;;;5.60;99.90;;;;;;6191405;23;20822;-85
2021/11/12 08:23:21;;;;;;;15.03;11.23;;;5.60;99.90;;;;;;6178289;23;20407;-86
2021/11/12 08:47:43;;;;;;;15.90;11.30;;;5.80;99.90;;;;;;6124312;23;20532;-86
2021/11/12 08:55:15;;;;;;;19.50;11.73;;;6.00;99.90;;;;;;6162388;23;20367;-86
2021/11/12 08:57:46;;;;;;;17.23;10.77;;;6.20;99.90;;;;;;6139351;23;20421;-84
2021/11/12 09:00:13;;;;;;;17.47;11.00;;;6.20;99.90;;;;;;6163339;23;20462;-86
2021/11/12 09:02:47;;;;;;;20.60;12.97;;;6.10;99.90;;;;;;6135868;23;20414;-84
2021/11/12 09:05:29;;;;;;;19.33;13.00;;;6.10;99.90;;;;;;6142992;23;20465;-84
2021/11/12 09:13:41;;;;;;;14.47;10.93;;;6.10;99.90;;;;;;6183621;23;20677;-84
2021/11/12 09:16:30;;;;;;;13.47;11.13;;;6.20;99.90;;;;;;6167914;23;20840;-85
2021/11/12 09:19:23;;;;;;;16.33;11.00;;;6.00;99.90;;;;;;6207107;23;20411;-86
2021/11/12 09:21:53;;;;;;;15.53;11.17;;;6.30;99.90;;;;;;6171641;23;20485;-85
2021/11/12 09:27:28;;;;;;;16.10;11.20;;;6.40;99.90;;;;;;6223615;23;20402;-85
2021/11/12 09:29:58;;;;;;;16.43;10.87;;;6.50;99.90;;;;;;6193182;23;20512;-87
2021/11/12 09:32:32;;;;;;;17.80;11.90;;;6.40;99.90;;;;;;6200727;23;20480;-84
2021/11/12 09:35:02;;;;;;;13.20;10.90;;;6.40;99.90;;;;;;6199148;23;20435;-85
2021/11/12 09:40:35;;;;;;;18.10;11.53;;;6.40;99.90;;;;;;6197322;23;20464;-84
2021/11/12 09:43:05;;;;;;;18.73;12.00;;;6.50;99.90;;;;;;6198569;23;20476;-86
2021/11/12 09:45:36;;;;;;;17.07;10.80;;;6.60;99.90;;;;;;6223236;23;20444;-86
2021/11/12 09:48:09;;;;;;;15.80;11.57;;;6.60;99.90;;;;;;6198041;23;20448;-85
2021/11/12 09:50:39;;;;;;;17.57;11.53;;;6.60;99.90;;;;;;6197901;23;20431;-88
2021/11/12 09:53:09;;;;;;;17.80;12.27;;;6.80;99.90;;;;;;6195419;23;20416;-85
2021/11/12 09:55:47;;;;;;;17.80;13.00;;;6.70;99.90;;;;;;6196878;23;20410;-86
2021/11/12 09:58:16;;;;;;;13.43;10.67;;;6.50;99.90;;;;;;6197316;23;20433;-86
2021/11/12 10:00:47;;;;;;;15.53;10.67;;;6.80;99.90;;;;;;6173600;23;20505;-87
2021/11/12 10:03:17;;;;;;;15.90;11.40;;;7.00;99.90;;;;;;6194518;23;20785;-86
2021/11/12 10:05:52;;;;;;;16.00;11.40;;;7.00;99.90;;;;;;6221436;23;20451;-85
2021/11/12 10:08:38;;;;;;;13.17;11.40;;;7.40;99.90;;;;;;6172277;23;20441;-85
2021/11/12 10:11:12;;;;;;;17.30;12.23;;;7.50;99.90;;;;;;6219121;23;20413;-85
2021/11/12 10:13:59;;;;;;;16.53;11.87;;;7.70;99.90;;;;;;6221793;23;20412;-84
2021/11/12 10:16:35;;;;;;;17.07;11.17;;;7.60;99.90;;;;;;6194557;23;20447;-86
2021/11/12 10:19:17;;;;;;;12.30;9.50;;;7.60;99.90;;;;;;6198824;23;20429;-86
2021/11/12 10:22:15;;;;;;;13.40;10.67;;;7.60;99.90;;;;;;6197526;23;20406;-83
2021/11/12 10:24:51;;;;;;;14.73;11.50;;;7.50;99.90;;;;;;6199096;23;20444;-84
2021/11/12 10:27:21;;;;;;;15.53;12.03;;;7.70;99.90;;;;;;6198504;23;20510;-83
2021/11/12 10:30:03;;;;;;;15.90;12.97;;;7.80;99.90;;;;;;6170833;23;20471;-86
2021/11/12 10:32:35;;;;;;;20.10;13.33;;;7.90;99.90;;;;;;6167408;23;20986;-84
2021/11/12 10:35:08;;;;;;;13.40;11.37;;;8.00;99.90;;;;;;6167720;23;20420;-86
2021/11/12 10:37:38;;;;;;;18.73;12.40;;;8.20;99.90;;;;;;6166351;23;20421;-85
2021/11/12 10:40:21;;;;;;;14.90;11.50;;;8.20;99.90;;;;;;6164492;23;20440;-84
2021/11/12 10:42:58;;;;;;;15.30;11.47;;;7.90;99.90;;;;;;6165002;23;20404;-87
2021/11/12 10:45:31;;;;;;;18.20;12.50;;;7.80;99.90;;;;;;6166699;23;20456;-86
2021/11/12 10:48:07;;;;;;;13.90;11.03;;;7.70;99.90;;;;;;6165755;23;20492;-85
2021/11/12 10:50:45;;;;;;;18.00;13.33;;;7.70;99.90;;;;;;6165912;23;20403;-87
2021/11/12 10:53:15;;;;;;;16.63;12.40;;;7.80;99.90;;;;;;6161426;23;20401;-86
2021/11/12 10:55:59;;;;;;;16.23;13.00;;;8.10;99.90;;;;;;6172554;23;20492;-86
2021/11/12 10:58:27;;;;;;;18.43;12.93;;;8.20;99.90;;;;;;6168487;23;20493;-87
2021/11/12 11:00:56;;;;;;;15.93;10.90;;;8.20;99.90;;;;;;6167544;23;20409;-86
2021/11/12 11:03:29;;;;;;;16.00;11.23;;;8.10;99.90;;;;;;6170535;23;20401;-86
2021/11/12 11:06:04;;;;;;;15.77;11.67;;;8.10;99.90;;;;;;6172627;23;20451;-85
2021/11/12 11:08:37;;;;;;;15.97;11.80;;;8.10;99.90;;;;;;6170464;23;20972;-87
2021/11/12 11:11:08;;;;;;;16.60;12.80;;;8.00;99.90;;;;;;6197284;23;20428;-86
2021/11/12 11:13:42;;;;;;;15.60;11.63;;;8.10;99.90;;;;;;6198683;23;20446;-86
2021/11/12 11:16:20;;;;;;;14.13;12.10;;;8.10;99.90;;;;;;6174727;23;20412;-89
2021/11/12 11:18:54;;;;;;;16.93;11.80;;;8.30;99.90;;;;;;6151661;23;20996;-87
2021/11/12 11:21:27;;;;;;;15.87;13.13;;;8.20;99.90;;;;;;6193869;23;20415;-87
2021/11/12 11:24:12;;;;;;;17.90;12.10;;;8.40;99.90;;;;;;6169794;23;20414;-85
2021/11/12 11:26:48;;;;;;;18.53;11.77;;;8.50;99.90;;;;;;6170567;23;20427;-86
2021/11/12 11:29:21;;;;;;;14.83;11.70;;;8.50;99.90;;;;;;6172069;23;20519;-86
2021/11/12 11:32:06;;;;;;;17.40;12.90;;;8.50;99.90;;;;;;6164140;23;20409;-86
2021/11/12 11:34:45;;;;;;;15.03;11.80;;;8.70;99.90;;;;;;6166430;23;20426;-87
2021/11/12 11:37:21;;;;;;;16.23;12.60;;;8.70;99.90;;;;;;6171351;23;20827;-87
2021/11/12 11:39:49;;;;;;;16.03;12.30;;;8.90;99.90;;;;;;6168266;23;20431;-86
2021/11/12 11:42:16;;;;;;;14.33;11.20;;;8.80;99.90;;;;;;6165295;23;20425;-88
2021/11/12 11:44:45;;;;;;;15.30;12.50;;;8.90;99.90;;;;;;6167292;23;20443;-86
2021/11/12 11:47:12;;;;;;;19.10;12.20;;;9.00;99.90;;;;;;6168183;23;20411;-85
2021/11/12 11:49:49;;;;;;;18.30;13.00;;;9.00;99.90;;;;;;6164552;23;20466;-84
2021/11/12 11:52:32;;;;;;;16.57;11.20;;;9.10;99.90;;;;;;6167177;23;20476;-88
2021/11/12 11:55:01;;;;;;;15.50;13.10;;;9.00;99.90;;;;;;6165940;23;20422;-86
2021/11/12 11:57:46;;;;;;;14.67;11.73;;;9.00;99.90;;;;;;6167760;23;20906;-87
2021/11/12 12:00:27;;;;;;;15.93;11.97;;;8.90;99.90;;;;;;6173181;23;20417;-87
2021/11/12 12:03:23;;;;;;;13.67;11.20;;;9.00;99.90;;;;;;6174453;23;20411;-88
2021/11/12 12:06:14;;;;;;;16.50;12.57;;;9.10;99.90;;;;;;6175711;23;20513;-89
2021/11/12 12:09:10;;;;;;;14.20;12.13;;;9.20;99.90;;;;;;6171472;23;20423;-88
2021/11/12 12:11:56;;;;;;;16.07;11.60;;;9.10;99.90;;;;;;6194223;23;20497;-86
2021/11/12 12:14:41;;;;;;;18.00;12.10;;;9.30;99.90;;;;;;6176218;23;20481;-87
2021/11/12 12:17:25;;;;;;;15.90;13.10;;;9.30;99.90;;;;;;6172430;23;20410;-86
2021/11/12 12:20:01;;;;;;;16.40;13.03;;;9.20;99.90;;;;;;6173956;23;20443;-85
2021/11/12 13:25:55;;;;;;;20.97;12.07;;;9.70;99.90;;;;;;6199028;23;20445;-87
2021/11/12 13:28:43;;;;;;;13.10;11.30;;;9.80;99.90;;;;;;6171819;23;20445;-88
2021/11/12 13:31:23;;;;;;;16.00;12.73;;;9.90;99.90;;;;;;6172465;23;20488;-86
2021/11/12 13:34:00;;;;;;;13.93;11.80;;;10.00;99.90;;;;;;6192010;23;20405;-84
2021/11/12 13:36:32;;;;;;;14.33;11.43;;;10.20;99.60;;;;;;6163218;23;20406;-85
2021/11/12 13:39:19;;;;;;;17.40;12.27;;;10.30;99.10;;;;;;6189017;23;20427;-83
2021/11/12 13:42:01;;;;;;;16.03;12.47;;;10.10;98.90;;;;;;6162892;23;20406;-93
2021/11/12 13:44:35;;;;;;;14.60;11.50;;;9.90;99.70;;;;;;6209521;23;20434;-88
2021/11/12 13:47:10;;;;;;;13.17;8.93;;;10.20;99.40;;;;;;6210248;23;20397;-91
2021/11/12 13:49:52;;;;;;;16.57;11.50;;;10.20;98.60;;;;;;6179348;23;20434;-91
2021/11/12 13:52:49;;;;;;;16.63;11.80;;;10.10;98.80;;;;;;6179365;23;20423;-86
2021/11/12 13:55:24;;;;;;;11.47;10.27;;;9.90;99.50;;;;;;6167758;23;20414;-86
2021/11/12 13:57:58;;;;;;;13.93;12.10;;;9.70;99.70;;;;;;6164771;23;20414;-84
2021/11/12 14:00:29;;;;;;;14.63;12.20;;;9.80;99.80;;;;;;6166091;23;20410;-84
2021/11/12 14:03:14;;;;;;;15.87;11.83;;;9.80;99.60;;;;;;6176170;23;20423;-92
2021/11/12 14:06:00;;;;;;;14.17;11.27;;;9.70;99.80;;;;;;6181182;23;20518;-89
2021/11/12 14:09:00;;;;;;;;;;;;;;;;;;;;;
2021/11/12 14:12:02;;;;;;;16.27;11.50;;;9.50;99.80;;;;;;6166937;23;20414;-88
2021/11/12 14:15:04;;;;;;;15.20;11.20;;;9.70;99.70;;;;;;6178018;23;20410;-85
2021/11/12 14:21:12;;;;;;;13.50;11.00;;;9.80;99.50;;;;;;6053181;23;20407;-87
2021/11/12 14:27:21;;;;;;;15.57;11.07;;;9.50;99.90;;;;;;6047085;23;20451;-85
2021/11/12 14:36:07;;;;;;;14.67;11.93;;;9.70;99.90;;;;;;6047783;23;20752;-86
2021/11/12 14:40:04;;;;;;;13.07;11.10;;;9.80;99.50;;;;;;5957322;23;20430;-86
2021/11/12 14:51:12;;;;;;;15.63;11.70;;;9.20;99.90;;;;;;6045964;23;20418;-85
2021/11/12 14:54:08;;;;;;;;;;;;;;;;;;;;;
2021/11/12 15:00:17;;;;;;;16.50;12.23;;;9.50;99.90;;;;;;6045889;23;20845;-87
2021/11/12 15:03:00;;;;;;;16.73;13.20;;;9.30;99.90;;;;;;6045478;23;20415;-85
2021/11/12 15:06:05;;;;;;;16.60;13.20;;;9.20;99.90;;;;;;6044364;23;20457;-87
2021/11/12 15:08:40;;;;;;;17.30;12.50;;;9.20;99.90;;;;;;6043322;23;20509;-86
2021/11/12 15:11:23;;;;;;;18.13;13.30;;;9.10;99.90;;;;;;6043958;23;20445;-85
2021/11/12 15:14:14;;;;;;;16.10;12.20;;;9.00;99.90;;;;;;6043967;23;20423;-85
2021/11/12 15:17:12;;;;;;;15.73;11.67;;;9.20;99.90;;;;;;6043877;23;20422;-86
2021/11/12 15:19:42;;;;;;;14.97;11.30;;;9.10;99.90;;;;;;6075684;23;21085;-87
2021/11/12 15:25:17;;;;;;;15.40;11.63;;;9.00;99.90;;;;;;6090532;23;20448;-85
2021/11/12 15:28:13;;;;;;;13.30;11.10;;;9.10;99.90;;;;;;6094351;23;20466;-87
2021/11/12 15:30:50;;;;;;;14.40;11.27;;;9.10;99.90;;;;;;6094943;23;20417;-85
2021/11/12 15:33:19;;;;;;;12.90;10.83;;;9.10;99.90;;;;;;6094783;23;20464;-88
2021/11/12 15:35:48;;;;;;;14.40;9.93;;;8.90;99.90;;;;;;6095046;23;20489;-86
2021/11/12 15:38:23;;;;;;;19.00;11.57;;;8.90;99.90;;;;;;6095062;23;20457;-87
2021/11/12 15:46:22;;;;;;;16.60;11.83;;;8.60;99.90;;;;;;6072003;23;20711;-86
2021/11/12 15:48:58;;;;;;;14.10;11.93;;;8.60;99.90;;;;;;6094933;23;20433;-88
2021/11/12 15:51:40;;;;;;;15.80;12.67;;;8.60;99.90;;;;;;6095200;23;20414;-87
2021/11/12 16:00:44;;;;;;;11.60;9.90;;;8.60;99.90;;;;;;6041632;23;20637;-86
2021/11/12 16:03:41;;;;;;;13.43;10.27;;;8.40;99.90;;;;;;6017713;23;20485;-87
2021/11/12 16:09:19;;;;;;;16.10;12.10;;;8.40;99.90;;;;;;6067141;23;20461;-86
2021/11/12 16:15:02;;;;;;;14.73;11.47;;;8.20;99.90;;;;;;6073403;23;20422;-85
2021/11/12 16:23:47;;;;;;;16.63;12.07;;;8.20;99.90;;;;;;6011130;23;20790;-86
2021/11/12 16:26:17;;;;;;;15.47;12.20;;;7.90;99.90;;;;;;6012840;23;20521;-88
2021/11/12 16:29:12;;;;;;;14.53;10.70;;;7.80;99.90;;;;;;6012346;23;20492;-86
2021/11/12 16:31:43;;;;;;;13.87;11.10;;;8.00;99.90;;;;;;6013237;23;20514;-87
2021/11/12 16:34:23;;;;;;;16.83;10.30;;;8.10;99.90;;;;;;6012330;23;20419;-85
2021/11/12 16:37:24;;;;;;;19.93;13.10;;;8.10;99.90;;;;;;5997070;23;20485;-86
2021/11/12 16:39:57;;;;;;;16.20;12.40;;;8.00;99.90;;;;;;6013134;23;20573;-88
2021/11/12 16:53:05;;;;;;;17.47;11.97;;;7.80;99.90;;;;;;6052014;23;20404;-87
2021/11/12 16:58:52;;;;;;;17.90;14.97;;;7.80;99.90;;;;;;6048399;23;20439;-86
2021/11/12 17:07:38;;;;;;;17.07;12.73;;;7.60;99.90;;;;;;6042680;23;20494;-84
2021/11/12 17:10:16;;;;;;;16.63;11.37;;;7.70;99.90;;;;;;6047019;23;20506;-87
2021/11/12 18:04:00;;;;;;;16.53;13.03;;;7.10;99.90;;;;;;6071924;23;20452;-86
2021/11/12 22:07:38;;;;;;;13.87;10.27;;;6.40;99.90;;;;;;6143471;23;20445;-85
2021/11/12 22:32:05;;;;;;;14.20;10.53;;;6.60;99.90;;;;;;6227561;23;20442;-85
2021/11/12 22:35:27;;;;;;;14.67;10.13;;;6.40;99.90;;;;;;6225765;23;20417;-85
2021/11/12 22:38:56;;;;;;;13.37;7.80;;;6.50;99.90;;;;;;6105439;23;20420;-84
2021/11/12 22:41:27;;;;;;;14.10;10.20;;;6.60;99.90;;;;;;6193423;23;21148;-84
2021/11/12 22:43:59;;;;;;;17.33;10.93;;;6.60;99.90;;;;;;6193072;23;20819;-84
2021/11/12 22:46:31;;;;;;;17.90;12.00;;;6.60;99.90;;;;;;6192421;23;20467;-84
2021/11/12 22:49:15;;;;;;;13.93;11.33;;;6.60;99.90;;;;;;6106238;23;20911;-86
2021/11/12 22:51:47;;;;;;;16.67;12.37;;;6.70;99.90;;;;;;6126235;23;20891;-84
2021/11/12 22:54:17;;;;;;;13.50;11.07;;;6.80;99.90;;;;;;6126199;23;20455;-84
2021/11/12 22:56:51;;;;;;;14.10;10.70;;;6.70;99.90;;;;;;6125296;23;20414;-85
2021/11/12 22:59:21;;;;;;;14.10;10.43;;;6.90;99.90;;;;;;6125571;23;20441;-85
2021/11/12 23:01:53;;;;;;;23.10;12.73;;;6.80;99.90;;;;;;6127640;23;20423;-86
2021/11/12 23:04:23;;;;;;;14.43;10.60;;;6.70;99.90;;;;;;6132148;23;20522;-87
2021/11/12 23:06:53;;;;;;;13.03;9.60;;;6.90;99.90;;;;;;6126458;23;21017;-86
2021/11/12 23:09:29;;;;;;;14.00;10.80;;;6.90;99.90;;;;;;6101691;23;20843;-87
2021/11/12 23:11:58;;;;;;;14.40;10.10;;;6.80;99.90;;;;;;6131593;23;20468;-84
2021/11/12 23:15:02;;;;;;;12.50;9.00;;;7.00;99.90;;;;;;6127377;23;20419;-86
2021/11/12 23:18:18;;;;;;;11.20;9.33;;;7.10;99.90;;;;;;6013684;23;20399;-87
2021/11/12 23:21:06;;;;;;;12.87;9.33;;;6.80;99.90;;;;;;6090718;23;20400;-86
2021/11/12 23:27:38;;;;;;;11.87;7.73;;;6.60;99.90;;;;;;6096632;23;20477;-87
2021/11/12 23:30:08;;;;;;;12.67;10.20;;;6.60;99.90;;;;;;6139621;23;20540;-87
2021/11/12 23:33:25;;;;;;;9.40;7.37;;;6.50;99.90;;;;;;6157571;23;20486;-86
2021/11/12 23:36:43;;;;;;;12.13;9.07;;;6.60;99.90;;;;;;6158033;23;20415;-87
2021/11/12 23:39:32;;;;;;;10.50;8.47;;;6.40;99.90;;;;;;6063986;23;20423;-86
2021/11/12 23:43:01;;;;;;;14.73;10.70;;;6.60;99.90;;;;;;6075953;23;20440;-87
2021/11/12 23:46:01;;;;;;;12.07;9.20;;;6.60;99.90;;;;;;6045558;23;20509;-86
2021/11/12 23:49:04;;;;;;;14.20;8.97;;;6.60;99.90;;;;;;6080330;23;20448;-88
2021/11/12 23:51:33;;;;;;;9.70;8.00;;;6.80;99.90;;;;;;6068664;23;20502;-84
2021/11/12 23:54:09;;;;;;;13.90;10.00;;;6.70;99.90;;;;;;6068086;23;20422;-85
2021/11/12 23:56:36;;;;;;;13.13;8.97;;;6.60;99.90;;;;;;6081366;23;20833;-85
2021/11/12 23:59:06;;;;;;;10.40;8.07;;;6.60;99.90;;;;;;6108907;23;20465;-89
